createdAt,value
2023-05-22T00:02:26.132Z,99612.97
2023-05-22T00:04:53.570Z,99611.81
2023-05-22T00:07:21.077Z,99610.59
2023-05-22T00:09:48.456Z,99612.03
2023-05-22T00:12:16.025Z,99605.78
2023-05-22T00:14:44.838Z,99601.59
2023-05-22T00:17:12.202Z,99605.00
2023-05-22T00:19:39.610Z,99595.75
2023-05-22T00:22:07.070Z,99600.16
2023-05-22T00:24:34.512Z,99584.63
2023-05-22T00:27:01.966Z,99592.50
2023-05-22T00:29:29.324Z,99587.97
2023-05-22T00:31:58.017Z,99590.03
2023-05-22T00:34:25.406Z,99580.50
2023-05-22T00:36:52.810Z,99592.47
2023-05-22T00:39:20.197Z,99581.72
2023-05-22T00:41:47.781Z,99587.88
2023-05-22T00:44:15.243Z,99579.19
2023-05-22T00:46:42.645Z,99583.91
2023-05-22T00:49:11.376Z,99580.28
2023-05-22T00:51:38.998Z,99583.44
2023-05-22T00:54:06.678Z,99577.47
2023-05-22T00:56:34.280Z,99576.31
2023-05-22T00:59:01.829Z,99579.38
2023-05-22T01:01:29.316Z,99575.41
2023-05-22T01:03:57.441Z,99584.78
2023-05-22T01:06:28.559Z,99579.47
2023-05-22T01:08:55.959Z,99579.06
2023-05-22T01:11:28.475Z,99571.84
2023-05-22T01:14:01.315Z,99571.66
2023-05-22T01:16:37.273Z,99568.53
2023-05-22T01:19:14.703Z,99567.97
2023-05-22T01:21:48.019Z,99575.06
2023-05-22T01:24:49.015Z,99567.41
2023-05-22T01:27:39.592Z,99574.88
2023-05-22T01:30:29.175Z,99571.34
2023-05-22T01:32:59.596Z,99575.25
2023-05-22T01:35:28.051Z,99577.72
2023-05-22T01:37:57.476Z,99585.41
2023-05-22T01:40:26.015Z,99577.16
2023-05-22T01:42:55.804Z,99573.41
2023-05-22T01:45:23.207Z,99571.34
2023-05-22T01:47:51.174Z,99578.81
2023-05-22T01:50:20.372Z,99570.94
2023-05-22T01:52:54.009Z,99575.09
2023-05-22T01:55:28.966Z,99565.13
2023-05-22T01:58:03.066Z,99571.31
2023-05-22T02:00:32.375Z,99568.41
2023-05-22T02:03:17.125Z,99577.38
2023-05-22T02:05:51.790Z,99574.06
2023-05-22T02:08:20.448Z,99571.16
2023-05-22T02:10:48.940Z,99570.88
2023-05-22T02:13:16.501Z,99560.97
2023-05-22T02:15:46.328Z,99556.38
2023-05-22T02:18:13.749Z,99563.47
2023-05-22T02:20:41.404Z,99560.31
2023-05-22T02:23:10.421Z,99554.28
2023-05-22T02:25:37.915Z,99555.66
2023-05-22T02:28:05.364Z,99552.94
2023-05-22T02:30:32.932Z,99554.19
2023-05-22T02:33:00.409Z,99555.00
2023-05-22T02:35:27.905Z,99549.78
2023-05-22T02:37:55.207Z,99550.44
2023-05-22T02:40:24.099Z,99553.47
2023-05-22T02:42:51.522Z,99553.47
2023-05-22T02:45:18.993Z,99545.47
2023-05-22T02:47:46.457Z,99550.28
2023-05-22T02:50:14.092Z,99549.56
2023-05-22T02:52:41.480Z,99546.63
2023-05-22T02:55:09.654Z,99554.75
2023-05-22T02:57:38.598Z,99545.84
2023-05-22T03:00:07.206Z,99549.91
2023-05-22T03:02:34.657Z,99550.38
2023-05-22T03:05:02.366Z,99549.56
2023-05-22T03:07:29.875Z,99547.13
2023-05-22T03:09:57.597Z,99546.19
2023-05-22T03:12:25.144Z,99541.66
2023-05-22T03:14:53.880Z,99547.03
2023-05-22T03:17:21.228Z,99544.06
2023-05-22T03:19:48.676Z,99556.63
2023-05-22T03:22:16.127Z,99562.59
2023-05-22T03:24:43.606Z,99557.16
2023-05-22T03:27:11.945Z,99567.34
2023-05-22T03:29:39.258Z,99567.97
2023-05-22T03:32:11.025Z,99570.75
2023-05-22T03:34:38.414Z,99575.41
2023-05-22T03:37:05.872Z,99579.44
2023-05-22T03:39:33.250Z,99575.19
2023-05-22T03:42:00.825Z,99579.59
2023-05-22T03:44:28.466Z,99572.56
2023-05-22T03:46:55.859Z,99575.88
2023-05-22T03:49:24.743Z,99570.09
2023-05-22T03:51:52.081Z,99576.75
2023-05-22T03:54:19.411Z,99573.44
2023-05-22T03:56:47.018Z,99564.81
2023-05-22T03:59:14.413Z,99573.00
2023-05-22T04:01:41.777Z,99570.09
2023-05-22T04:04:09.369Z,99565.75
2023-05-22T04:06:38.497Z,99574.31
2023-05-22T04:09:05.987Z,99574.25
2023-05-22T04:11:33.415Z,99579.59
2023-05-22T04:14:03.764Z,99579.47
2023-05-22T04:16:31.271Z,99588.41
2023-05-22T04:18:58.822Z,99589.41
2023-05-22T04:21:26.418Z,99580.81
2023-05-22T04:23:55.146Z,99579.59
2023-05-22T04:26:22.630Z,99578.97
2023-05-22T04:28:50.013Z,99575.38
2023-05-22T04:31:17.564Z,99572.94
2023-05-22T04:33:44.972Z,99571.91
2023-05-22T04:36:12.687Z,99571.31
2023-05-22T04:38:40.056Z,99565.59
2023-05-22T04:41:09.006Z,99568.81
2023-05-22T04:43:36.354Z,99572.22
2023-05-22T04:46:03.763Z,99572.28
2023-05-22T04:48:31.078Z,99574.59
2023-05-22T04:50:58.626Z,99579.28
2023-05-22T04:53:26.039Z,99574.63
2023-05-22T04:55:53.447Z,99582.47
2023-05-22T04:58:22.180Z,99575.88
2023-05-22T05:00:52.724Z,99580.97
2023-05-22T05:03:20.351Z,99582.69
2023-05-22T05:05:47.845Z,99590.28
2023-05-22T05:08:15.262Z,99581.66
2023-05-22T05:10:42.588Z,99592.06
2023-05-22T05:13:10.038Z,99587.31
2023-05-22T05:15:39.072Z,99594.16
2023-05-22T05:18:06.745Z,99597.56
2023-05-22T05:20:34.227Z,99607.25
2023-05-22T05:23:01.587Z,99606.34
2023-05-22T05:25:29.203Z,99600.75
2023-05-22T05:27:56.565Z,99609.66
2023-05-22T05:30:24.364Z,99612.34
2023-05-22T05:32:53.180Z,99610.81
2023-05-22T05:35:20.501Z,99613.72
2023-05-22T05:37:47.980Z,99619.88
2023-05-22T05:40:18.535Z,99623.50
2023-05-22T05:42:46.105Z,99628.03
2023-05-22T05:45:14.030Z,99628.00
2023-05-22T05:47:44.226Z,99631.78
2023-05-22T05:50:13.007Z,99632.88
2023-05-22T05:52:40.400Z,99629.00
2023-05-22T05:55:10.234Z,99627.22
2023-05-22T05:57:37.622Z,99634.84
2023-05-22T06:00:06.349Z,99630.84
2023-05-22T06:02:39.717Z,99633.63
2023-05-22T06:05:07.971Z,99630.91
2023-05-22T06:07:36.816Z,99632.59
2023-05-22T06:10:04.986Z,99641.28
2023-05-22T06:12:32.706Z,99647.75
2023-05-22T06:15:00.070Z,99646.41
2023-05-22T06:17:46.182Z,99646.41
2023-05-22T06:20:13.672Z,99641.50
2023-05-22T06:22:42.335Z,99646.50
2023-05-22T06:25:10.242Z,99648.56
2023-05-22T06:27:37.658Z,99647.72
2023-05-22T06:30:06.349Z,99648.19
2023-05-22T06:32:33.742Z,99651.31
2023-05-22T06:35:01.434Z,99658.59
2023-05-22T06:37:29.013Z,99660.31
2023-05-22T06:39:57.770Z,99662.94
2023-05-22T06:42:25.339Z,99662.75
2023-05-22T06:44:52.911Z,99659.84
2023-05-22T06:47:20.361Z,99664.59
2023-05-22T06:49:47.712Z,99665.25
2023-05-22T06:52:15.130Z,99672.78
2023-05-22T06:54:42.467Z,99671.72
2023-05-22T06:57:11.258Z,99671.84
2023-05-22T06:59:38.711Z,99669.19
2023-05-22T07:02:06.332Z,99676.06
2023-05-22T07:04:33.698Z,99677.72
2023-05-22T07:07:01.172Z,99678.78
2023-05-22T07:09:28.575Z,99671.28
2023-05-22T07:11:55.895Z,99674.19
2023-05-22T07:14:24.565Z,99673.78
2023-05-22T07:16:52.003Z,99678.78
2023-05-22T07:19:19.565Z,99678.38
2023-05-22T07:21:46.982Z,99674.63
2023-05-22T07:24:14.421Z,99676.50
2023-05-22T07:26:42.281Z,99676.31
2023-05-22T07:29:09.740Z,99666.31
2023-05-22T07:31:38.593Z,99662.16
2023-05-22T07:34:06.092Z,99664.03
2023-05-22T07:36:33.457Z,99671.31
2023-05-22T07:39:00.906Z,99673.75
2023-05-22T07:41:28.284Z,99671.22
2023-05-22T07:43:55.718Z,99683.69
2023-05-22T07:46:23.145Z,99680.91
2023-05-22T07:48:51.995Z,99681.00
2023-05-22T07:51:19.572Z,99686.81
2023-05-22T07:53:47.021Z,99684.28
2023-05-22T07:56:14.415Z,99696.66
2023-05-22T07:58:41.905Z,99675.88
2023-05-22T08:01:09.784Z,99681.59
2023-05-22T08:03:37.455Z,99691.63
2023-05-22T08:06:07.134Z,99691.00
2023-05-22T08:08:34.477Z,99691.47
2023-05-22T08:11:04.173Z,99690.44
2023-05-22T08:13:32.337Z,99704.97
2023-05-22T08:16:00.966Z,99702.25
2023-05-22T08:18:28.865Z,99693.28
2023-05-22T08:20:56.330Z,99698.72
2023-05-22T08:23:25.017Z,99700.84
2023-05-22T08:25:52.361Z,99696.69
2023-05-22T08:28:19.799Z,99699.19
2023-05-22T08:30:47.212Z,99695.41
2023-05-22T08:33:14.676Z,99698.34
2023-05-22T08:35:42.117Z,99696.88
2023-05-22T08:38:09.578Z,99693.72
2023-05-22T08:40:39.370Z,99704.09
2023-05-22T08:43:07.415Z,99701.59
2023-05-22T08:45:34.871Z,99696.22
2023-05-22T08:48:04.941Z,99692.91
2023-05-22T08:50:32.464Z,99703.13
2023-05-22T08:53:01.246Z,99691.44
2023-05-22T08:55:29.226Z,99693.47
2023-05-22T08:57:58.718Z,99687.03
2023-05-22T09:00:26.435Z,99695.84
2023-05-22T09:02:54.077Z,99692.31
2023-05-22T09:05:21.731Z,99688.06
2023-05-22T09:07:49.163Z,99695.34
2023-05-22T09:10:16.736Z,99684.94
2023-05-22T09:13:04.034Z,99690.06
2023-05-22T09:15:32.064Z,99691.34
2023-05-22T09:17:59.710Z,99692.31
2023-05-22T09:20:27.227Z,99690.63
2023-05-22T09:22:54.630Z,99684.50
2023-05-22T09:25:22.000Z,99692.97
2023-05-22T09:27:49.469Z,99687.72
2023-05-22T09:30:18.723Z,99686.50
2023-05-22T09:33:04.519Z,99693.88
2023-05-22T09:35:32.619Z,99690.88
2023-05-22T09:38:00.206Z,99684.72
2023-05-22T09:40:27.984Z,99682.19
2023-05-22T09:42:55.333Z,99685.13
2023-05-22T09:45:27.953Z,99685.88
2023-05-22T09:47:55.299Z,99686.03
2023-05-22T09:50:22.728Z,99697.50
2023-05-22T09:52:51.894Z,99688.34
2023-05-22T09:55:20.908Z,99680.94
2023-05-22T09:57:49.682Z,99672.13
2023-05-22T10:00:17.645Z,99672.78
2023-05-22T10:02:48.171Z,99678.41
2023-05-22T10:05:15.698Z,99681.78
2023-05-22T10:07:47.169Z,99685.00
2023-05-22T10:10:15.798Z,99683.47
2023-05-22T10:12:45.134Z,99680.84
2023-05-22T10:15:13.198Z,99678.09
2023-05-22T10:17:40.934Z,99691.13
2023-05-22T10:20:12.209Z,99680.31
2023-05-22T10:22:40.414Z,99684.13
2023-05-22T10:25:10.782Z,99675.59
2023-05-22T10:27:39.828Z,99683.78
2023-05-22T10:30:29.184Z,99666.22
2023-05-22T10:33:01.259Z,99669.31
2023-05-22T10:35:41.002Z,99665.97
2023-05-22T10:38:36.297Z,99659.25
2023-05-22T10:41:04.377Z,99658.81
2023-05-22T10:43:57.273Z,99660.78
2023-05-22T10:46:36.752Z,99658.75
2023-05-22T10:49:07.147Z,99655.69
2023-05-22T10:51:36.023Z,99659.03
2023-05-22T10:54:13.412Z,99663.84
2023-05-22T10:57:10.457Z,99669.53
2023-05-22T10:59:40.599Z,99665.81
2023-05-22T11:02:21.039Z,99665.41
2023-05-22T11:04:50.899Z,99660.06
2023-05-22T11:07:19.711Z,99656.41
2023-05-22T11:09:47.215Z,99654.47
2023-05-22T11:12:24.708Z,99661.56
2023-05-22T11:14:54.221Z,99657.22
2023-05-22T11:17:26.860Z,99656.63
2023-05-22T11:19:58.519Z,99653.75
2023-05-22T11:22:37.430Z,99641.50
2023-05-22T11:25:07.741Z,99647.72
2023-05-22T11:27:35.654Z,99639.66
2023-05-22T11:30:04.026Z,99643.50
2023-05-22T11:32:31.603Z,99641.28
2023-05-22T11:34:59.309Z,99631.53
2023-05-22T11:37:27.420Z,99630.47
2023-05-22T11:39:58.619Z,99631.88
2023-05-22T11:42:26.184Z,99628.94
2023-05-22T11:44:53.524Z,99616.47
2023-05-22T11:47:20.859Z,99624.69
2023-05-22T11:49:48.607Z,99621.56
2023-05-22T11:52:16.866Z,99615.31
2023-05-22T11:54:45.484Z,99616.28
2023-05-22T11:57:14.969Z,99613.19
2023-05-22T11:59:45.299Z,99616.66
2023-05-22T12:02:13.037Z,99608.88
2023-05-22T12:04:40.712Z,99608.34
2023-05-22T12:07:08.733Z,99604.13
2023-05-22T12:09:39.034Z,99598.16
2023-05-22T12:12:08.911Z,99596.81
2023-05-22T12:14:38.190Z,99588.34
2023-05-22T12:17:05.971Z,99589.63
2023-05-22T12:19:40.069Z,99595.59
2023-05-22T12:22:08.682Z,99586.94
2023-05-22T12:24:39.496Z,99583.34
2023-05-22T12:27:08.994Z,99588.91
2023-05-22T12:29:38.318Z,99586.56
2023-05-22T12:32:08.160Z,99585.28
2023-05-22T12:34:42.176Z,99590.41
2023-05-22T12:37:18.490Z,99590.53
2023-05-22T12:39:54.222Z,99583.19
2023-05-22T12:42:21.663Z,99580.53
2023-05-22T12:44:50.867Z,99586.91
2023-05-22T12:47:18.449Z,99582.19
2023-05-22T12:49:46.041Z,99589.31
2023-05-22T12:52:13.397Z,99578.91
2023-05-22T12:54:40.783Z,99576.69
2023-05-22T12:57:08.636Z,99575.63
2023-05-22T12:59:35.977Z,99580.63
2023-05-22T13:02:07.449Z,99580.47
2023-05-22T13:04:37.965Z,99583.13
2023-05-22T13:07:05.727Z,99586.94
2023-05-22T13:09:33.029Z,99584.09
2023-05-22T13:12:00.605Z,99584.81
2023-05-22T13:14:28.171Z,99580.44
2023-05-22T13:16:55.480Z,99575.97
2023-05-22T13:19:24.224Z,99571.94
2023-05-22T13:21:51.596Z,99577.13
2023-05-22T13:24:18.971Z,99571.81
2023-05-22T13:26:46.337Z,99571.28
2023-05-22T13:29:13.780Z,99584.41
2023-05-22T13:31:41.118Z,99578.28
2023-05-22T13:34:08.622Z,99573.34
2023-05-22T13:36:37.471Z,99580.09
2023-05-22T13:39:04.991Z,99573.63
2023-05-22T13:41:32.416Z,99577.06
2023-05-22T13:43:59.763Z,99560.56
2023-05-22T13:46:27.167Z,99565.72
2023-05-22T13:48:54.621Z,99569.31
2023-05-22T13:51:22.009Z,99562.88
2023-05-22T13:53:50.744Z,99563.03
2023-05-22T13:56:18.046Z,99554.75
2023-05-22T13:58:45.369Z,99555.50
2023-05-22T14:01:12.797Z,99561.59
2023-05-22T14:03:40.298Z,99558.19
2023-05-22T14:06:07.923Z,99558.75
2023-05-22T14:08:35.524Z,99559.00
2023-05-22T14:11:04.345Z,99556.06
2023-05-22T14:13:31.889Z,99544.59
2023-05-22T14:15:59.348Z,99550.13
2023-05-22T14:18:26.677Z,99546.97
2023-05-22T14:20:57.134Z,99551.47
2023-05-22T14:23:24.476Z,99539.41
2023-05-22T14:25:51.866Z,99536.47
2023-05-22T14:28:20.536Z,99542.72
2023-05-22T14:30:47.999Z,99543.75
2023-05-22T14:33:15.397Z,99543.53
2023-05-22T14:35:42.910Z,99544.13
2023-05-22T14:38:10.354Z,99545.31
2023-05-22T14:40:37.773Z,99537.28
2023-05-22T14:43:05.150Z,99530.78
2023-05-22T14:45:33.878Z,99524.06
2023-05-22T14:48:01.235Z,99522.28
2023-05-22T14:50:28.719Z,99525.09
2023-05-22T14:52:56.031Z,99517.81
2023-05-22T14:55:23.712Z,99524.75
2023-05-22T14:57:51.019Z,99517.25
2023-05-22T15:00:18.736Z,99521.75
2023-05-22T15:02:47.609Z,99522.09
2023-05-22T15:05:15.184Z,99517.06
2023-05-22T15:07:46.074Z,99509.16
2023-05-22T15:10:14.653Z,99515.97
2023-05-22T15:12:42.049Z,99511.75
2023-05-22T15:15:10.316Z,99511.63
2023-05-22T15:17:38.235Z,99521.53
2023-05-22T15:20:08.941Z,99511.28
2023-05-22T15:22:36.375Z,99512.13
2023-05-22T15:25:05.237Z,99504.94
2023-05-22T15:27:32.978Z,99515.72
2023-05-22T15:30:00.697Z,99514.44
2023-05-22T15:32:28.068Z,99506.88
2023-05-22T15:34:55.448Z,99511.03
2023-05-22T15:37:24.276Z,99516.06
2023-05-22T15:39:51.706Z,99513.91
2023-05-22T15:42:19.107Z,99509.22
2023-05-22T15:44:46.467Z,99517.78
2023-05-22T15:47:13.841Z,99504.28
2023-05-22T15:49:43.663Z,99506.75
2023-05-22T15:52:10.995Z,99505.81
2023-05-22T15:54:39.886Z,99507.97
2023-05-22T15:57:07.440Z,99515.16
2023-05-22T15:59:34.880Z,99509.03
2023-05-22T16:02:02.304Z,99510.03
2023-05-22T16:04:29.829Z,99508.00
2023-05-22T16:06:57.166Z,99504.84
2023-05-22T16:09:24.697Z,99500.69
2023-05-22T16:11:53.429Z,99511.94
2023-05-22T16:14:23.607Z,99508.28
2023-05-22T16:16:53.373Z,99504.84
2023-05-22T16:19:20.752Z,99500.34
2023-05-22T16:21:48.119Z,99501.38
2023-05-22T16:24:15.696Z,99504.94
2023-05-22T16:26:43.166Z,99501.84
2023-05-22T16:29:12.138Z,99500.44
2023-05-22T16:31:39.800Z,99507.69
2023-05-22T16:34:07.175Z,99502.00
2023-05-22T16:36:34.616Z,99504.38
2023-05-22T16:39:01.920Z,99502.16
2023-05-22T16:41:29.300Z,99511.97
2023-05-22T16:43:56.697Z,99507.28
2023-05-22T16:46:25.593Z,99516.25
2023-05-22T16:48:53.158Z,99511.03
2023-05-22T16:51:20.883Z,99512.81
2023-05-22T16:53:49.383Z,99523.56
2023-05-22T16:56:17.708Z,99524.84
2023-05-22T16:58:45.208Z,99524.72
2023-05-22T17:01:12.728Z,99518.50
2023-05-22T17:03:41.775Z,99524.41
2023-05-22T17:06:09.184Z,99530.97
2023-05-22T17:08:36.695Z,99529.59
2023-05-22T17:11:04.264Z,99526.72
2023-05-22T17:13:31.628Z,99526.16
2023-05-22T17:15:59.022Z,99536.19
2023-05-22T17:18:26.356Z,99532.88
2023-05-22T17:21:12.482Z,99536.56
2023-05-22T17:24:00.069Z,99537.47
2023-05-22T17:26:36.484Z,99542.53
2023-05-22T17:29:03.824Z,99541.94
2023-05-22T17:31:31.297Z,99551.53
2023-05-22T17:33:58.828Z,99544.88
2023-05-22T17:36:31.539Z,99549.34
2023-05-22T17:39:21.750Z,99549.25
2023-05-22T17:42:18.262Z,99557.47
2023-05-22T17:45:04.942Z,99545.44
2023-05-22T17:47:50.932Z,99558.81
2023-05-22T17:50:36.751Z,99564.03
2023-05-22T17:53:12.359Z,99567.69
2023-05-22T17:56:00.851Z,99567.41
2023-05-22T17:58:46.725Z,99574.56
2023-05-22T18:01:30.369Z,99575.09
2023-05-22T18:03:58.058Z,99572.84
2023-05-22T18:06:25.640Z,99573.84
2023-05-22T18:08:54.840Z,99575.66
2023-05-22T18:11:22.331Z,99579.03
2023-05-22T18:13:50.363Z,99579.63
2023-05-22T18:16:18.195Z,99585.59
2023-05-22T18:18:45.606Z,99589.06
2023-05-22T18:21:13.085Z,99593.94
2023-05-22T18:23:40.458Z,99603.94
2023-05-22T18:26:09.199Z,99597.41
2023-05-22T18:28:36.535Z,99603.81
2023-05-22T18:31:04.109Z,99607.66
2023-05-22T18:33:31.474Z,99610.28
2023-05-22T18:36:01.844Z,99611.09
2023-05-22T18:38:29.251Z,99608.78
2023-05-22T18:40:56.612Z,99611.13
2023-05-22T18:43:25.484Z,99613.81
2023-05-22T18:45:52.929Z,99617.78
2023-05-22T18:48:22.679Z,99623.09
2023-05-22T18:50:53.210Z,99623.53
2023-05-22T18:53:22.412Z,99622.41
2023-05-22T18:55:49.751Z,99628.94
2023-05-22T18:58:17.246Z,99633.09
2023-05-22T19:00:46.049Z,99634.84
2023-05-22T19:03:13.533Z,99634.47
2023-05-22T19:05:41.115Z,99633.75
2023-05-22T19:08:08.577Z,99638.75
2023-05-22T19:11:02.013Z,99643.06
2023-05-22T19:13:29.593Z,99641.81
2023-05-22T19:15:58.465Z,99641.00
2023-05-22T19:18:26.173Z,99644.34
2023-05-22T19:20:53.504Z,99643.13
2023-05-22T19:23:21.153Z,99645.81
2023-05-22T19:25:51.363Z,99648.78
2023-05-22T19:28:18.941Z,99641.13
2023-05-22T19:30:46.447Z,99644.44
2023-05-22T19:33:17.805Z,99652.34
2023-05-22T19:35:45.239Z,99645.69
2023-05-22T19:38:32.837Z,99648.22
2023-05-22T19:41:00.334Z,99649.50
2023-05-22T19:43:27.835Z,99651.59
2023-05-22T19:45:55.260Z,99644.13
2023-05-22T19:48:24.045Z,99653.13
2023-05-22T19:50:51.367Z,99664.34
2023-05-22T19:53:21.003Z,99658.53
2023-05-22T19:55:51.151Z,99668.31
2023-05-22T19:58:18.467Z,99681.44
2023-05-22T20:00:45.868Z,99680.81
2023-05-22T20:03:13.315Z,99688.78
2023-05-22T20:05:42.487Z,99693.34
2023-05-22T20:08:12.756Z,99693.97
2023-05-22T20:10:40.384Z,99709.38
2023-05-22T20:13:07.852Z,99717.91
2023-05-22T20:15:35.266Z,99722.91
2023-05-22T20:18:02.701Z,99726.66
2023-05-22T20:20:30.229Z,99726.66
2023-05-22T20:22:58.977Z,99729.97
2023-05-22T20:25:26.438Z,99739.75
2023-05-22T20:27:53.759Z,99735.38
2023-05-22T20:30:21.239Z,99746.22
2023-05-22T20:32:48.777Z,99749.28
2023-05-22T20:35:16.220Z,99755.94
2023-05-22T20:37:43.635Z,99749.47
2023-05-22T20:40:13.700Z,99752.81
2023-05-22T20:43:01.988Z,99754.28
2023-05-22T20:45:29.490Z,99771.56
2023-05-22T20:47:57.105Z,99770.53
2023-05-22T20:50:27.014Z,99770.09
2023-05-22T20:52:54.343Z,99770.94
2023-05-22T20:55:23.348Z,99772.78
2023-05-22T20:57:56.641Z,99770.69
2023-05-22T21:00:24.135Z,99776.13
2023-05-22T21:02:51.594Z,99776.53
2023-05-22T21:05:18.964Z,99778.38
2023-05-22T21:07:46.264Z,99771.13
2023-05-22T21:10:13.596Z,99779.03
2023-05-22T21:12:42.318Z,99775.50
2023-05-22T21:15:10.926Z,99767.38
2023-05-22T21:17:39.136Z,99775.69
2023-05-22T21:20:07.139Z,99775.91
2023-05-22T21:22:34.521Z,99776.94
2023-05-22T21:25:01.855Z,99775.69
2023-05-22T21:27:29.190Z,99762.34
2023-05-22T21:29:57.912Z,99758.38
2023-05-22T21:32:25.265Z,99761.69
2023-05-22T21:34:55.563Z,99761.69
2023-05-22T21:37:22.949Z,99757.75
2023-05-22T21:39:50.386Z,99758.56
2023-05-22T21:42:18.158Z,99765.03
2023-05-22T21:44:45.736Z,99764.22
2023-05-22T21:47:14.469Z,99772.09
2023-05-22T21:49:42.210Z,99776.25
2023-05-22T21:52:09.827Z,99786.44
2023-05-22T21:54:37.312Z,99791.25
2023-05-22T21:57:05.028Z,99793.78
2023-05-22T21:59:32.510Z,99798.53
2023-05-22T22:01:59.975Z,99798.09
2023-05-22T22:04:28.774Z,99791.84
2023-05-22T22:06:56.127Z,99810.63
2023-05-22T22:09:23.512Z,99798.69
2023-05-22T22:11:51.029Z,99796.94
2023-05-22T22:14:18.447Z,99802.94
2023-05-22T22:16:45.869Z,99787.50
2023-05-22T22:19:13.332Z,99784.28
2023-05-22T22:21:42.187Z,99787.84
2023-05-22T22:24:12.254Z,99781.00
2023-05-22T22:26:39.562Z,99779.56
2023-05-22T22:29:07.072Z,99775.63
2023-05-22T22:31:34.468Z,99776.69
2023-05-22T22:34:01.793Z,99775.22
2023-05-22T22:36:29.221Z,99777.31
2023-05-22T22:38:57.896Z,99774.81
2023-05-22T22:41:25.425Z,99771.50
2023-05-22T22:43:54.539Z,99765.88
2023-05-22T22:46:22.117Z,99763.97
2023-05-22T22:48:49.790Z,99764.41
2023-05-22T22:51:17.208Z,99771.88
2023-05-22T22:53:44.615Z,99773.72
2023-05-22T22:56:13.540Z,99767.94
2023-05-22T22:58:41.000Z,99772.84
2023-05-22T23:01:08.341Z,99764.13
2023-05-22T23:03:35.741Z,99766.41
2023-05-22T23:06:03.193Z,99769.75
2023-05-22T23:08:30.557Z,99766.13
2023-05-22T23:10:57.939Z,99766.69
2023-05-22T23:13:26.677Z,99765.66
2023-05-22T23:15:54.151Z,99767.63
2023-05-22T23:18:21.507Z,99776.53
2023-05-22T23:20:48.909Z,99774.94
2023-05-22T23:23:16.365Z,99772.28
2023-05-22T23:25:43.710Z,99770.78
2023-05-22T23:28:11.303Z,99774.13
2023-05-22T23:30:40.054Z,99774.94
2023-05-22T23:33:07.376Z,99783.03
2023-05-22T23:35:34.888Z,99777.41
2023-05-22T23:38:02.463Z,99776.19
2023-05-22T23:40:30.001Z,99779.88
2023-05-22T23:42:57.299Z,99788.22
2023-05-22T23:45:24.689Z,99785.50
2023-05-22T23:47:53.522Z,99789.22
2023-05-22T23:50:21.032Z,99798.38
2023-05-22T23:52:48.440Z,99798.16
2023-05-22T23:55:15.860Z,99795.44
2023-05-22T23:57:43.238Z,99792.91
